sensor_id;sensor_type;location;lat;lon;timestamp;P1;durP1;ratioP1;P2;durP2;ratioP2
3193;SDS011;1608;50.860;13.466;2023-02-28T00:00:49;14.50;;;6.10;;
3193;SDS011;1608;50.860;13.466;2023-02-28T00:03:16;5.83;;;4.20;;
3193;SDS011;1608;50.860;13.466;2023-02-28T00:05:43;13.60;;;6.60;;
3193;SDS011;1608;50.860;13.466;2023-02-28T00:08:09;14.80;;;7.37;;
3193;SDS011;1608;50.860;13.466;2023-02-28T00:10:36;12.03;;;5.33;;
3193;SDS011;1608;50.860;13.466;2023-02-28T00:13:04;13.63;;;5.33;;
3193;SDS011;1608;50.860;13.466;2023-02-28T00:15:32;7.90;;;4.17;;
3193;SDS011;1608;50.860;13.466;2023-02-28T00:18:01;7.57;;;4.33;;
3193;SDS011;1608;50.860;13.466;2023-02-28T00:20:28;8.17;;;5.13;;
3193;SDS011;1608;50.860;13.466;2023-02-28T00:22:55;16.50;;;5.57;;
3193;SDS011;1608;50.860;13.466;2023-02-28T00:25:22;8.53;;;5.40;;
3193;SDS011;1608;50.860;13.466;2023-02-28T00:27:50;14.67;;;6.03;;
3193;SDS011;1608;50.860;13.466;2023-02-28T00:30:18;8.83;;;4.80;;
3193;SDS011;1608;50.860;13.466;2023-02-28T00:32:46;8.10;;;5.40;;
3193;SDS011;1608;50.860;13.466;2023-02-28T00:35:15;10.73;;;6.27;;
3193;SDS011;1608;50.860;13.466;2023-02-28T00:37:43;9.07;;;5.30;;
3193;SDS011;1608;50.860;13.466;2023-02-28T00:40:10;10.43;;;6.60;;
3193;SDS011;1608;50.860;13.466;2023-02-28T00:42:37;7.13;;;4.00;;
3193;SDS011;1608;50.860;13.466;2023-02-28T00:45:05;18.77;;;5.53;;
3193;SDS011;1608;50.860;13.466;2023-02-28T00:47:33;16.80;;;7.00;;
3193;SDS011;1608;50.860;13.466;2023-02-28T00:50:00;10.30;;;5.77;;
3193;SDS011;1608;50.860;13.466;2023-02-28T00:52:28;8.70;;;4.80;;
3193;SDS011;1608;50.860;13.466;2023-02-28T00:54:55;10.97;;;5.17;;
3193;SDS011;1608;50.860;13.466;2023-02-28T00:57:22;10.67;;;6.03;;
3193;SDS011;1608;50.860;13.466;2023-02-28T00:59:49;5.37;;;3.70;;
3193;SDS011;1608;50.860;13.466;2023-02-28T01:02:16;7.50;;;4.73;;
3193;SDS011;1608;50.860;13.466;2023-02-28T01:04:45;8.43;;;4.03;;
3193;SDS011;1608;50.860;13.466;2023-02-28T01:07:12;10.57;;;5.60;;
3193;SDS011;1608;50.860;13.466;2023-02-28T01:09:41;6.67;;;4.20;;
3193;SDS011;1608;50.860;13.466;2023-02-28T01:12:08;10.07;;;4.53;;
3193;SDS011;1608;50.860;13.466;2023-02-28T01:14:35;4.97;;;3.73;;
3193;SDS011;1608;50.860;13.466;2023-02-28T01:17:02;5.70;;;4.50;;
3193;SDS011;1608;50.860;13.466;2023-02-28T01:19:29;8.77;;;4.67;;
3193;SDS011;1608;50.860;13.466;2023-02-28T01:21:56;8.40;;;4.80;;
3193;SDS011;1608;50.860;13.466;2023-02-28T01:24:22;7.07;;;4.00;;
3193;SDS011;1608;50.860;13.466;2023-02-28T01:26:51;5.63;;;4.07;;
3193;SDS011;1608;50.860;13.466;2023-02-28T01:29:17;9.87;;;4.93;;
3193;SDS011;1608;50.860;13.466;2023-02-28T01:31:44;8.17;;;5.20;;
3193;SDS011;1608;50.860;13.466;2023-02-28T01:34:11;5.33;;;3.87;;
3193;SDS011;1608;50.860;13.466;2023-02-28T01:36:38;8.67;;;4.50;;
3193;SDS011;1608;50.860;13.466;2023-02-28T01:39:05;7.30;;;4.43;;
3193;SDS011;1608;50.860;13.466;2023-02-28T01:41:32;5.63;;;4.67;;
3193;SDS011;1608;50.860;13.466;2023-02-28T01:44:03;5.37;;;3.43;;
3193;SDS011;1608;50.860;13.466;2023-02-28T01:46:33;11.80;;;4.50;;
3193;SDS011;1608;50.860;13.466;2023-02-28T01:49:03;9.33;;;5.03;;
3193;SDS011;1608;50.860;13.466;2023-02-28T01:51:34;8.43;;;3.30;;
3193;SDS011;1608;50.860;13.466;2023-02-28T01:54:05;5.73;;;3.93;;
3193;SDS011;1608;50.860;13.466;2023-02-28T01:56:38;14.30;;;6.47;;
3193;SDS011;1608;50.860;13.466;2023-02-28T01:59:11;8.20;;;3.80;;
3193;SDS011;1608;50.860;13.466;2023-02-28T02:01:40;8.17;;;5.10;;
3193;SDS011;1608;50.860;13.466;2023-02-28T02:04:07;8.00;;;3.80;;
3193;SDS011;1608;50.860;13.466;2023-02-28T02:06:35;9.60;;;5.57;;
3193;SDS011;1608;50.860;13.466;2023-02-28T02:09:05;6.17;;;4.23;;
3193;SDS011;1608;50.860;13.466;2023-02-28T02:11:32;6.20;;;3.93;;
3193;SDS011;1608;50.860;13.466;2023-02-28T02:14:10;6.90;;;3.83;;
3193;SDS011;1608;50.860;13.466;2023-02-28T02:16:50;5.57;;;3.80;;
3193;SDS011;1608;50.860;13.466;2023-02-28T02:22:33;7.70;;;3.77;;
3193;SDS011;1608;50.860;13.466;2023-02-28T02:25:19;6.40;;;3.67;;
3193;SDS011;1608;50.860;13.466;2023-02-28T02:27:59;5.67;;;3.80;;
3193;SDS011;1608;50.860;13.466;2023-02-28T02:37:03;5.83;;;3.73;;
3193;SDS011;1608;50.860;13.466;2023-02-28T02:39:40;6.03;;;4.20;;
3193;SDS011;1608;50.860;13.466;2023-02-28T02:42:15;5.70;;;3.93;;
3193;SDS011;1608;50.860;13.466;2023-02-28T02:44:48;5.53;;;3.97;;
3193;SDS011;1608;50.860;13.466;2023-02-28T02:47:20;9.23;;;3.80;;
3193;SDS011;1608;50.860;13.466;2023-02-28T02:49:52;5.50;;;3.97;;
3193;SDS011;1608;50.860;13.466;2023-02-28T02:52:22;5.57;;;3.90;;
3193;SDS011;1608;50.860;13.466;2023-02-28T02:54:53;7.10;;;4.93;;
3193;SDS011;1608;50.860;13.466;2023-02-28T02:57:23;10.63;;;4.53;;
3193;SDS011;1608;50.860;13.466;2023-02-28T02:59:55;7.70;;;4.20;;
3193;SDS011;1608;50.860;13.466;2023-02-28T03:02:23;10.47;;;5.03;;
3193;SDS011;1608;50.860;13.466;2023-02-28T03:04:53;6.73;;;4.90;;
3193;SDS011;1608;50.860;13.466;2023-02-28T03:07:26;8.33;;;3.50;;
3193;SDS011;1608;50.860;13.466;2023-02-28T03:09:53;6.47;;;3.60;;
3193;SDS011;1608;50.860;13.466;2023-02-28T03:12:21;7.40;;;4.40;;
3193;SDS011;1608;50.860;13.466;2023-02-28T03:14:58;7.13;;;3.23;;
3193;SDS011;1608;50.860;13.466;2023-02-28T03:17:41;7.43;;;4.30;;
3193;SDS011;1608;50.860;13.466;2023-02-28T03:20:19;7.03;;;3.93;;
3193;SDS011;1608;50.860;13.466;2023-02-28T03:22:59;5.80;;;4.10;;
3193;SDS011;1608;50.860;13.466;2023-02-28T03:25:35;9.30;;;5.63;;
3193;SDS011;1608;50.860;13.466;2023-02-28T03:28:08;9.30;;;5.53;;
3193;SDS011;1608;50.860;13.466;2023-02-28T03:30:44;9.40;;;5.13;;
3193;SDS011;1608;50.860;13.466;2023-02-28T03:33:19;6.03;;;4.17;;
3193;SDS011;1608;50.860;13.466;2023-02-28T03:35:52;7.23;;;3.67;;
3193;SDS011;1608;50.860;13.466;2023-02-28T03:38:22;7.70;;;3.73;;
3193;SDS011;1608;50.860;13.466;2023-02-28T03:40:55;6.17;;;3.87;;
3193;SDS011;1608;50.860;13.466;2023-02-28T03:43:30;7.73;;;4.57;;
3193;SDS011;1608;50.860;13.466;2023-02-28T03:46:03;8.20;;;5.23;;
3193;SDS011;1608;50.860;13.466;2023-02-28T03:48:37;6.03;;;4.40;;
3193;SDS011;1608;50.860;13.466;2023-02-28T03:51:08;6.07;;;4.10;;
3193;SDS011;1608;50.860;13.466;2023-02-28T03:53:42;9.43;;;4.23;;
3193;SDS011;1608;50.860;13.466;2023-02-28T03:56:13;7.20;;;4.40;;
3193;SDS011;1608;50.860;13.466;2023-02-28T03:58:43;7.90;;;4.60;;
3193;SDS011;1608;50.860;13.466;2023-02-28T04:01:18;9.33;;;4.53;;
3193;SDS011;1608;50.860;13.466;2023-02-28T04:03:49;4.63;;;3.73;;
3193;SDS011;1608;50.860;13.466;2023-02-28T04:06:18;7.93;;;4.73;;
3193;SDS011;1608;50.860;13.466;2023-02-28T04:08:46;8.93;;;4.57;;
3193;SDS011;1608;50.860;13.466;2023-02-28T04:11:18;10.97;;;4.27;;
3193;SDS011;1608;50.860;13.466;2023-02-28T04:13:48;9.70;;;6.40;;
3193;SDS011;1608;50.860;13.466;2023-02-28T04:16:15;10.83;;;5.70;;
3193;SDS011;1608;50.860;13.466;2023-02-28T04:18:42;12.37;;;4.20;;
3193;SDS011;1608;50.860;13.466;2023-02-28T04:21:09;9.97;;;5.63;;
3193;SDS011;1608;50.860;13.466;2023-02-28T04:23:38;8.07;;;5.23;;
3193;SDS011;1608;50.860;13.466;2023-02-28T04:26:05;5.00;;;3.80;;
3193;SDS011;1608;50.860;13.466;2023-02-28T04:28:32;6.57;;;4.90;;
3193;SDS011;1608;50.860;13.466;2023-02-28T04:31:00;10.67;;;6.20;;
3193;SDS011;1608;50.860;13.466;2023-02-28T04:33:28;13.40;;;5.50;;
3193;SDS011;1608;50.860;13.466;2023-02-28T04:35:59;12.93;;;5.50;;
3193;SDS011;1608;50.860;13.466;2023-02-28T04:38:27;6.90;;;4.70;;
3193;SDS011;1608;50.860;13.466;2023-02-28T04:40:57;8.97;;;5.70;;
3193;SDS011;1608;50.860;13.466;2023-02-28T04:43:25;11.80;;;6.10;;
3193;SDS011;1608;50.860;13.466;2023-02-28T04:45:52;8.20;;;5.10;;
3193;SDS011;1608;50.860;13.466;2023-02-28T04:48:21;10.83;;;6.53;;
3193;SDS011;1608;50.860;13.466;2023-02-28T04:50:48;13.20;;;6.00;;
3193;SDS011;1608;50.860;13.466;2023-02-28T04:53:15;11.90;;;5.20;;
3193;SDS011;1608;50.860;13.466;2023-02-28T04:55:42;14.23;;;7.53;;
3193;SDS011;1608;50.860;13.466;2023-02-28T04:58:10;7.90;;;6.50;;
3193;SDS011;1608;50.860;13.466;2023-02-28T05:00:37;6.90;;;5.43;;
3193;SDS011;1608;50.860;13.466;2023-02-28T05:03:04;12.10;;;6.53;;
3193;SDS011;1608;50.860;13.466;2023-02-28T05:05:31;9.27;;;4.93;;
3193;SDS011;1608;50.860;13.466;2023-02-28T05:07:58;11.47;;;7.00;;
3193;SDS011;1608;50.860;13.466;2023-02-28T05:10:25;9.33;;;5.30;;
3193;SDS011;1608;50.860;13.466;2023-02-28T05:12:52;10.53;;;6.00;;
3193;SDS011;1608;50.860;13.466;2023-02-28T05:15:20;13.93;;;6.27;;
3193;SDS011;1608;50.860;13.466;2023-02-28T05:17:47;23.90;;;12.47;;
3193;SDS011;1608;50.860;13.466;2023-02-28T05:20:13;17.73;;;9.73;;
3193;SDS011;1608;50.860;13.466;2023-02-28T05:22:40;41.83;;;18.70;;
3193;SDS011;1608;50.860;13.466;2023-02-28T05:25:08;29.20;;;15.47;;
3193;SDS011;1608;50.860;13.466;2023-02-28T05:27:38;30.60;;;14.83;;
3193;SDS011;1608;50.860;13.466;2023-02-28T05:30:05;20.57;;;12.17;;
3193;SDS011;1608;50.860;13.466;2023-02-28T05:32:36;20.20;;;11.30;;
3193;SDS011;1608;50.860;13.466;2023-02-28T05:35:04;21.17;;;12.07;;
3193;SDS011;1608;50.860;13.466;2023-02-28T05:37:31;19.43;;;11.47;;
3193;SDS011;1608;50.860;13.466;2023-02-28T05:39:58;16.93;;;9.20;;
3193;SDS011;1608;50.860;13.466;2023-02-28T05:42:24;21.80;;;10.10;;
3193;SDS011;1608;50.860;13.466;2023-02-28T05:44:51;21.17;;;8.30;;
3193;SDS011;1608;50.860;13.466;2023-02-28T05:47:18;15.40;;;9.30;;
3193;SDS011;1608;50.860;13.466;2023-02-28T05:49:46;19.77;;;8.40;;
3193;SDS011;1608;50.860;13.466;2023-02-28T05:52:13;14.87;;;9.87;;
3193;SDS011;1608;50.860;13.466;2023-02-28T05:54:40;14.93;;;8.33;;
3193;SDS011;1608;50.860;13.466;2023-02-28T05:57:07;17.27;;;8.20;;
3193;SDS011;1608;50.860;13.466;2023-02-28T05:59:34;17.90;;;7.53;;
3193;SDS011;1608;50.860;13.466;2023-02-28T06:02:04;15.63;;;8.33;;
3193;SDS011;1608;50.860;13.466;2023-02-28T06:04:31;25.27;;;11.50;;
3193;SDS011;1608;50.860;13.466;2023-02-28T06:07:00;23.90;;;13.57;;
3193;SDS011;1608;50.860;13.466;2023-02-28T06:09:27;16.47;;;10.23;;
3193;SDS011;1608;50.860;13.466;2023-02-28T06:11:54;22.80;;;13.83;;
3193;SDS011;1608;50.860;13.466;2023-02-28T06:14:20;23.30;;;9.57;;
3193;SDS011;1608;50.860;13.466;2023-02-28T06:16:47;19.40;;;11.67;;
3193;SDS011;1608;50.860;13.466;2023-02-28T06:19:14;26.03;;;11.53;;
3193;SDS011;1608;50.860;13.466;2023-02-28T06:21:41;22.67;;;10.40;;
3193;SDS011;1608;50.860;13.466;2023-02-28T06:24:10;33.00;;;13.80;;
3193;SDS011;1608;50.860;13.466;2023-02-28T06:26:37;34.83;;;14.90;;
3193;SDS011;1608;50.860;13.466;2023-02-28T06:29:04;33.93;;;13.17;;
3193;SDS011;1608;50.860;13.466;2023-02-28T06:31:30;37.80;;;15.30;;
3193;SDS011;1608;50.860;13.466;2023-02-28T06:33:57;32.87;;;14.60;;
3193;SDS011;1608;50.860;13.466;2023-02-28T06:36:24;26.17;;;13.27;;
3193;SDS011;1608;50.860;13.466;2023-02-28T06:38:51;33.70;;;13.73;;
3193;SDS011;1608;50.860;13.466;2023-02-28T06:41:22;34.50;;;14.77;;
3193;SDS011;1608;50.860;13.466;2023-02-28T06:43:49;28.83;;;13.80;;
3193;SDS011;1608;50.860;13.466;2023-02-28T06:46:16;19.43;;;9.43;;
3193;SDS011;1608;50.860;13.466;2023-02-28T06:48:43;20.07;;;8.97;;
3193;SDS011;1608;50.860;13.466;2023-02-28T06:51:10;27.40;;;13.27;;
3193;SDS011;1608;50.860;13.466;2023-02-28T06:53:39;34.03;;;12.70;;
3193;SDS011;1608;50.860;13.466;2023-02-28T06:56:06;30.03;;;14.30;;
3193;SDS011;1608;50.860;13.466;2023-02-28T06:58:35;32.17;;;15.50;;
3193;SDS011;1608;50.860;13.466;2023-02-28T07:01:02;36.77;;;16.53;;
3193;SDS011;1608;50.860;13.466;2023-02-28T07:03:30;34.77;;;15.63;;
3193;SDS011;1608;50.860;13.466;2023-02-28T07:05:57;32.20;;;15.30;;
3193;SDS011;1608;50.860;13.466;2023-02-28T07:08:24;43.43;;;19.33;;
3193;SDS011;1608;50.860;13.466;2023-02-28T07:10:52;29.97;;;16.60;;
3193;SDS011;1608;50.860;13.466;2023-02-28T07:13:19;31.33;;;15.60;;
3193;SDS011;1608;50.860;13.466;2023-02-28T07:15:53;31.43;;;17.20;;
3193;SDS011;1608;50.860;13.466;2023-02-28T07:18:21;38.13;;;17.40;;
3193;SDS011;1608;50.860;13.466;2023-02-28T07:20:48;35.47;;;13.13;;
3193;SDS011;1608;50.860;13.466;2023-02-28T07:23:15;28.73;;;14.80;;
3193;SDS011;1608;50.860;13.466;2023-02-28T07:25:42;24.30;;;12.53;;
3193;SDS011;1608;50.860;13.466;2023-02-28T07:28:10;28.93;;;16.83;;
3193;SDS011;1608;50.860;13.466;2023-02-28T07:30:38;29.30;;;16.80;;
3193;SDS011;1608;50.860;13.466;2023-02-28T07:33:06;32.27;;;15.03;;
3193;SDS011;1608;50.860;13.466;2023-02-28T07:35:33;29.50;;;16.53;;
3193;SDS011;1608;50.860;13.466;2023-02-28T07:38:00;25.30;;;15.57;;
3193;SDS011;1608;50.860;13.466;2023-02-28T07:40:27;26.80;;;15.57;;
3193;SDS011;1608;50.860;13.466;2023-02-28T07:42:54;23.07;;;13.93;;
3193;SDS011;1608;50.860;13.466;2023-02-28T07:45:21;26.17;;;13.20;;
3193;SDS011;1608;50.860;13.466;2023-02-28T07:47:48;21.60;;;14.13;;
3193;SDS011;1608;50.860;13.466;2023-02-28T07:52:44;24.60;;;13.60;;
3193;SDS011;1608;50.860;13.466;2023-02-28T07:55:11;25.77;;;13.50;;
3193;SDS011;1608;50.860;13.466;2023-02-28T07:57:38;23.70;;;17.60;;
3193;SDS011;1608;50.860;13.466;2023-02-28T08:00:07;23.50;;;14.70;;
3193;SDS011;1608;50.860;13.466;2023-02-28T08:02:35;27.23;;;16.53;;
3193;SDS011;1608;50.860;13.466;2023-02-28T08:05:02;21.37;;;15.73;;
3193;SDS011;1608;50.860;13.466;2023-02-28T08:07:31;21.57;;;13.90;;
3193;SDS011;1608;50.860;13.466;2023-02-28T08:09:58;27.00;;;15.70;;
3193;SDS011;1608;50.860;13.466;2023-02-28T08:12:25;18.73;;;13.83;;
3193;SDS011;1608;50.860;13.466;2023-02-28T08:14:52;26.13;;;14.63;;
3193;SDS011;1608;50.860;13.466;2023-02-28T08:17:19;29.10;;;14.43;;
3193;SDS011;1608;50.860;13.466;2023-02-28T08:19:46;18.40;;;13.20;;
3193;SDS011;1608;50.860;13.466;2023-02-28T08:22:13;21.40;;;14.77;;
3193;SDS011;1608;50.860;13.466;2023-02-28T08:24:41;21.57;;;15.70;;
3193;SDS011;1608;50.860;13.466;2023-02-28T08:27:09;24.60;;;16.27;;
3193;SDS011;1608;50.860;13.466;2023-02-28T08:29:36;22.63;;;15.20;;
3193;SDS011;1608;50.860;13.466;2023-02-28T08:32:04;19.30;;;14.60;;
3193;SDS011;1608;50.860;13.466;2023-02-28T08:34:31;19.00;;;14.63;;
3193;SDS011;1608;50.860;13.466;2023-02-28T08:36:57;22.70;;;15.60;;
3193;SDS011;1608;50.860;13.466;2023-02-28T08:39:24;31.03;;;16.40;;
3193;SDS011;1608;50.860;13.466;2023-02-28T08:41:52;21.53;;;15.27;;
3193;SDS011;1608;50.860;13.466;2023-02-28T08:44:19;25.53;;;16.13;;
3193;SDS011;1608;50.860;13.466;2023-02-28T08:46:46;18.63;;;14.50;;
3193;SDS011;1608;50.860;13.466;2023-02-28T08:49:13;25.33;;;18.03;;
3193;SDS011;1608;50.860;13.466;2023-02-28T08:51:40;21.57;;;15.77;;
3193;SDS011;1608;50.860;13.466;2023-02-28T08:54:07;22.53;;;17.07;;
3193;SDS011;1608;50.860;13.466;2023-02-28T08:56:37;21.53;;;16.80;;
3193;SDS011;1608;50.860;13.466;2023-02-28T08:59:06;20.27;;;16.33;;
3193;SDS011;1608;50.860;13.466;2023-02-28T09:01:35;21.73;;;15.57;;
3193;SDS011;1608;50.860;13.466;2023-02-28T09:04:02;16.60;;;13.17;;
3193;SDS011;1608;50.860;13.466;2023-02-28T09:06:29;19.70;;;13.87;;
3193;SDS011;1608;50.860;13.466;2023-02-28T09:08:56;19.53;;;13.40;;
3193;SDS011;1608;50.860;13.466;2023-02-28T09:11:26;21.63;;;14.93;;
3193;SDS011;1608;50.860;13.466;2023-02-28T09:13:53;15.17;;;11.80;;
3193;SDS011;1608;50.860;13.466;2023-02-28T09:16:22;12.00;;;10.47;;
3193;SDS011;1608;50.860;13.466;2023-02-28T09:18:49;18.10;;;11.33;;
3193;SDS011;1608;50.860;13.466;2023-02-28T09:21:17;9.17;;;6.67;;
3193;SDS011;1608;50.860;13.466;2023-02-28T09:23:45;10.47;;;8.37;;
3193;SDS011;1608;50.860;13.466;2023-02-28T09:26:15;20.10;;;10.67;;
3193;SDS011;1608;50.860;13.466;2023-02-28T09:28:42;14.20;;;10.00;;
3193;SDS011;1608;50.860;13.466;2023-02-28T09:31:12;11.47;;;9.00;;
3193;SDS011;1608;50.860;13.466;2023-02-28T09:33:43;13.70;;;8.53;;
3193;SDS011;1608;50.860;13.466;2023-02-28T09:36:09;14.00;;;8.83;;
3193;SDS011;1608;50.860;13.466;2023-02-28T09:38:36;13.47;;;7.97;;
3193;SDS011;1608;50.860;13.466;2023-02-28T09:41:04;7.50;;;5.27;;
3193;SDS011;1608;50.860;13.466;2023-02-28T09:43:39;11.93;;;7.57;;
3193;SDS011;1608;50.860;13.466;2023-02-28T09:46:12;10.73;;;8.23;;
3193;SDS011;1608;50.860;13.466;2023-02-28T09:48:48;20.60;;;8.27;;
3193;SDS011;1608;50.860;13.466;2023-02-28T09:51:23;14.67;;;7.13;;
3193;SDS011;1608;50.860;13.466;2023-02-28T09:53:56;12.83;;;9.33;;
3193;SDS011;1608;50.860;13.466;2023-02-28T09:56:25;17.60;;;11.20;;
3193;SDS011;1608;50.860;13.466;2023-02-28T09:58:56;15.60;;;10.13;;
3193;SDS011;1608;50.860;13.466;2023-02-28T10:01:27;10.23;;;6.30;;
3193;SDS011;1608;50.860;13.466;2023-02-28T10:04:03;14.43;;;10.10;;
3193;SDS011;1608;50.860;13.466;2023-02-28T10:06:38;15.13;;;7.43;;
3193;SDS011;1608;50.860;13.466;2023-02-28T10:09:11;17.10;;;8.57;;
3193;SDS011;1608;50.860;13.466;2023-02-28T10:11:44;13.53;;;7.97;;
3193;SDS011;1608;50.860;13.466;2023-02-28T10:14:13;12.10;;;8.43;;
3193;SDS011;1608;50.860;13.466;2023-02-28T10:16:43;8.00;;;6.37;;
3193;SDS011;1608;50.860;13.466;2023-02-28T10:19:19;12.90;;;9.70;;
3193;SDS011;1608;50.860;13.466;2023-02-28T10:21:50;9.60;;;6.90;;
3193;SDS011;1608;50.860;13.466;2023-02-28T10:24:23;13.13;;;7.30;;
3193;SDS011;1608;50.860;13.466;2023-02-28T10:26:56;12.80;;;8.47;;
3193;SDS011;1608;50.860;13.466;2023-02-28T10:29:26;22.07;;;9.33;;
3193;SDS011;1608;50.860;13.466;2023-02-28T10:31:58;11.23;;;7.50;;
3193;SDS011;1608;50.860;13.466;2023-02-28T10:34:29;10.27;;;6.17;;
3193;SDS011;1608;50.860;13.466;2023-02-28T10:36:55;10.67;;;6.93;;
3193;SDS011;1608;50.860;13.466;2023-02-28T10:39:35;9.57;;;7.27;;
3193;SDS011;1608;50.860;13.466;2023-02-28T10:42:04;8.07;;;6.93;;
3193;SDS011;1608;50.860;13.466;2023-02-28T10:44:31;10.90;;;7.30;;
3193;SDS011;1608;50.860;13.466;2023-02-28T10:46:58;11.60;;;7.30;;
3193;SDS011;1608;50.860;13.466;2023-02-28T10:49:27;8.97;;;5.87;;
3193;SDS011;1608;50.860;13.466;2023-02-28T10:51:56;12.23;;;7.07;;
3193;SDS011;1608;50.860;13.466;2023-02-28T10:54:26;15.97;;;8.10;;
3193;SDS011;1608;50.860;13.466;2023-02-28T10:57:15;17.60;;;8.10;;
3193;SDS011;1608;50.860;13.466;2023-02-28T10:59:44;18.50;;;7.27;;
3193;SDS011;1608;50.860;13.466;2023-02-28T11:02:31;12.93;;;7.53;;
3193;SDS011;1608;50.860;13.466;2023-02-28T11:05:01;11.63;;;9.00;;
3193;SDS011;1608;50.860;13.466;2023-02-28T11:07:28;13.00;;;7.30;;
3193;SDS011;1608;50.860;13.466;2023-02-28T11:09:55;12.30;;;7.60;;
3193;SDS011;1608;50.860;13.466;2023-02-28T11:12:25;13.50;;;9.13;;
3193;SDS011;1608;50.860;13.466;2023-02-28T11:14:55;14.40;;;8.30;;
3193;SDS011;1608;50.860;13.466;2023-02-28T11:17:24;12.53;;;7.30;;
3193;SDS011;1608;50.860;13.466;2023-02-28T11:19:54;8.87;;;5.97;;
3193;SDS011;1608;50.860;13.466;2023-02-28T11:22:25;15.30;;;7.70;;
3193;SDS011;1608;50.860;13.466;2023-02-28T11:24:57;12.37;;;8.20;;
3193;SDS011;1608;50.860;13.466;2023-02-28T11:27:45;12.63;;;7.37;;
3193;SDS011;1608;50.860;13.466;2023-02-28T11:30:24;7.70;;;5.20;;
3193;SDS011;1608;50.860;13.466;2023-02-28T11:32:53;9.37;;;6.77;;
3193;SDS011;1608;50.860;13.466;2023-02-28T11:35:21;8.00;;;5.67;;
3193;SDS011;1608;50.860;13.466;2023-02-28T11:37:53;11.50;;;8.20;;
3193;SDS011;1608;50.860;13.466;2023-02-28T11:40:21;13.73;;;7.33;;
3193;SDS011;1608;50.860;13.466;2023-02-28T11:42:58;16.20;;;9.33;;
3193;SDS011;1608;50.860;13.466;2023-02-28T11:45:39;7.80;;;6.40;;
3193;SDS011;1608;50.860;13.466;2023-02-28T11:48:12;14.07;;;7.43;;
3193;SDS011;1608;50.860;13.466;2023-02-28T11:50:49;10.67;;;6.07;;
3193;SDS011;1608;50.860;13.466;2023-02-28T11:53:27;7.90;;;4.27;;
3193;SDS011;1608;50.860;13.466;2023-02-28T11:56:08;21.43;;;7.93;;
3193;SDS011;1608;50.860;13.466;2023-02-28T11:58:43;11.63;;;6.87;;
3193;SDS011;1608;50.860;13.466;2023-02-28T12:01:26;11.50;;;7.23;;
3193;SDS011;1608;50.860;13.466;2023-02-28T12:04:11;10.87;;;7.13;;
3193;SDS011;1608;50.860;13.466;2023-02-28T12:06:45;19.07;;;5.50;;
3193;SDS011;1608;50.860;13.466;2023-02-28T12:09:24;8.93;;;6.30;;
3193;SDS011;1608;50.860;13.466;2023-02-28T12:12:06;11.67;;;8.53;;
3193;SDS011;1608;50.860;13.466;2023-02-28T12:14:45;10.70;;;6.93;;
3193;SDS011;1608;50.860;13.466;2023-02-28T12:17:26;10.33;;;6.50;;
3193;SDS011;1608;50.860;13.466;2023-02-28T12:20:05;12.73;;;9.07;;
3193;SDS011;1608;50.860;13.466;2023-02-28T12:22:43;10.07;;;8.00;;
3193;SDS011;1608;50.860;13.466;2023-02-28T12:28:21;9.57;;;6.30;;
3193;SDS011;1608;50.860;13.466;2023-02-28T12:30:53;17.43;;;9.00;;
3193;SDS011;1608;50.860;13.466;2023-02-28T12:33:24;13.30;;;8.70;;
3193;SDS011;1608;50.860;13.466;2023-02-28T12:35:55;15.13;;;8.67;;
3193;SDS011;1608;50.860;13.466;2023-02-28T12:38:24;16.30;;;8.27;;
3193;SDS011;1608;50.860;13.466;2023-02-28T12:40:56;17.00;;;8.27;;
3193;SDS011;1608;50.860;13.466;2023-02-28T12:43:28;10.77;;;6.97;;
3193;SDS011;1608;50.860;13.466;2023-02-28T12:46:00;9.20;;;5.43;;
3193;SDS011;1608;50.860;13.466;2023-02-28T12:48:33;17.93;;;8.50;;
3193;SDS011;1608;50.860;13.466;2023-02-28T12:51:06;10.10;;;8.47;;
3193;SDS011;1608;50.860;13.466;2023-02-28T12:53:35;15.60;;;7.50;;
3193;SDS011;1608;50.860;13.466;2023-02-28T12:56:18;15.77;;;6.20;;
3193;SDS011;1608;50.860;13.466;2023-02-28T12:58:51;12.80;;;8.60;;
3193;SDS011;1608;50.860;13.466;2023-02-28T13:01:32;10.93;;;7.73;;
3193;SDS011;1608;50.860;13.466;2023-02-28T13:04:39;14.00;;;8.87;;
3193;SDS011;1608;50.860;13.466;2023-02-28T13:10:22;15.40;;;9.03;;
3193;SDS011;1608;50.860;13.466;2023-02-28T13:12:51;12.47;;;9.30;;
3193;SDS011;1608;50.860;13.466;2023-02-28T13:15:22;10.57;;;6.20;;
3193;SDS011;1608;50.860;13.466;2023-02-28T13:17:53;12.63;;;9.80;;
3193;SDS011;1608;50.860;13.466;2023-02-28T13:20:23;13.30;;;6.87;;
3193;SDS011;1608;50.860;13.466;2023-02-28T13:22:52;9.60;;;5.20;;
3193;SDS011;1608;50.860;13.466;2023-02-28T13:31:25;7.80;;;5.63;;
3193;SDS011;1608;50.860;13.466;2023-02-28T13:34:05;12.10;;;7.10;;
3193;SDS011;1608;50.860;13.466;2023-02-28T13:36:40;5.90;;;5.30;;
3193;SDS011;1608;50.860;13.466;2023-02-28T13:45:22;9.53;;;6.97;;
3193;SDS011;1608;50.860;13.466;2023-02-28T13:47:56;10.50;;;6.73;;
3193;SDS011;1608;50.860;13.466;2023-02-28T13:50:28;10.00;;;5.20;;
3193;SDS011;1608;50.860;13.466;2023-02-28T13:56:17;24.43;;;8.47;;
3193;SDS011;1608;50.860;13.466;2023-02-28T13:58:53;11.40;;;7.50;;
3193;SDS011;1608;50.860;13.466;2023-02-28T14:01:44;14.40;;;6.37;;
3193;SDS011;1608;50.860;13.466;2023-02-28T14:07:16;8.80;;;5.80;;
3193;SDS011;1608;50.860;13.466;2023-02-28T14:09:49;12.40;;;8.17;;
3193;SDS011;1608;50.860;13.466;2023-02-28T14:15:26;9.23;;;5.90;;
3193;SDS011;1608;50.860;13.466;2023-02-28T14:18:10;14.03;;;8.43;;
3193;SDS011;1608;50.860;13.466;2023-02-28T14:20:42;9.83;;;7.57;;
3193;SDS011;1608;50.860;13.466;2023-02-28T14:23:13;10.20;;;7.33;;
3193;SDS011;1608;50.860;13.466;2023-02-28T14:25:47;16.33;;;8.60;;
3193;SDS011;1608;50.860;13.466;2023-02-28T14:28:23;19.13;;;9.57;;
3193;SDS011;1608;50.860;13.466;2023-02-28T14:31:03;14.77;;;7.10;;
3193;SDS011;1608;50.860;13.466;2023-02-28T14:33:44;10.97;;;7.40;;
3193;SDS011;1608;50.860;13.466;2023-02-28T14:36:21;9.97;;;7.37;;
3193;SDS011;1608;50.860;13.466;2023-02-28T14:38:51;12.90;;;8.80;;
3193;SDS011;1608;50.860;13.466;2023-02-28T14:41:21;13.87;;;8.23;;
3193;SDS011;1608;50.860;13.466;2023-02-28T14:43:53;13.93;;;9.40;;
3193;SDS011;1608;50.860;13.466;2023-02-28T14:46:22;11.90;;;7.90;;
3193;SDS011;1608;50.860;13.466;2023-02-28T14:48:54;11.30;;;8.50;;
3193;SDS011;1608;50.860;13.466;2023-02-28T14:51:21;14.90;;;7.83;;
3193;SDS011;1608;50.860;13.466;2023-02-28T14:53:51;10.50;;;7.33;;
3193;SDS011;1608;50.860;13.466;2023-02-28T14:56:23;11.20;;;6.77;;
3193;SDS011;1608;50.860;13.466;2023-02-28T14:58:53;13.33;;;9.03;;
3193;SDS011;1608;50.860;13.466;2023-02-28T15:01:21;14.83;;;10.13;;
3193;SDS011;1608;50.860;13.466;2023-02-28T15:03:57;14.80;;;9.37;;
3193;SDS011;1608;50.860;13.466;2023-02-28T15:06:26;14.33;;;8.20;;
3193;SDS011;1608;50.860;13.466;2023-02-28T15:09:14;12.60;;;8.20;;
3193;SDS011;1608;50.860;13.466;2023-02-28T15:11:45;11.30;;;9.40;;
3193;SDS011;1608;50.860;13.466;2023-02-28T15:14:15;11.37;;;7.87;;
3193;SDS011;1608;50.860;13.466;2023-02-28T15:16:44;12.43;;;7.73;;
3193;SDS011;1608;50.860;13.466;2023-02-28T15:19:17;12.00;;;7.90;;
3193;SDS011;1608;50.860;13.466;2023-02-28T15:21:49;14.80;;;10.07;;
3193;SDS011;1608;50.860;13.466;2023-02-28T15:24:26;14.13;;;9.20;;
3193;SDS011;1608;50.860;13.466;2023-02-28T15:26:58;15.60;;;9.13;;
3193;SDS011;1608;50.860;13.466;2023-02-28T15:29:27;16.90;;;9.10;;
3193;SDS011;1608;50.860;13.466;2023-02-28T15:31:56;15.40;;;11.07;;
3193;SDS011;1608;50.860;13.466;2023-02-28T15:34:33;17.57;;;10.17;;
3193;SDS011;1608;50.860;13.466;2023-02-28T15:37:01;16.30;;;8.30;;
3193;SDS011;1608;50.860;13.466;2023-02-28T15:39:33;20.77;;;12.33;;
3193;SDS011;1608;50.860;13.466;2023-02-28T15:42:10;13.90;;;8.37;;
3193;SDS011;1608;50.860;13.466;2023-02-28T15:44:37;20.30;;;10.40;;
3193;SDS011;1608;50.860;13.466;2023-02-28T15:47:05;15.27;;;9.83;;